createdAt,value
2022-09-24T00:02:44.376Z,101064.16
2022-09-24T00:05:48.059Z,101065.25
2022-09-24T00:08:54.351Z,101062.47
2022-09-24T00:11:57.039Z,101059.75
2022-09-24T00:14:59.657Z,101062.22
2022-09-24T00:18:02.425Z,101055.56
2022-09-24T00:21:13.329Z,101052.75
2022-09-24T00:24:32.837Z,101058.19
2022-09-24T00:27:35.552Z,101058.47
2022-09-24T00:30:39.297Z,101049.13
2022-09-24T00:33:43.411Z,101046.84
2022-09-24T00:36:46.729Z,101047.38
2022-09-24T00:39:51.070Z,101046.63
2022-09-24T00:42:53.705Z,101033.44
2022-09-24T00:46:03.785Z,101036.16
2022-09-24T00:49:13.773Z,101034.78
2022-09-24T00:52:17.441Z,101032.50
2022-09-24T00:55:24.924Z,101035.00
2022-09-24T00:58:29.593Z,101027.28
2022-09-24T01:01:32.477Z,101030.72
2022-09-24T01:04:35.180Z,101029.03
2022-09-24T01:07:38.372Z,101027.97
2022-09-24T01:10:51.795Z,101020.50
2022-09-24T01:14:12.201Z,101018.59
2022-09-24T01:17:25.615Z,101014.22
2022-09-24T01:20:58.515Z,101013.16
2022-09-24T01:24:23.062Z,101009.59
2022-09-24T01:27:44.610Z,101011.84
2022-09-24T01:30:51.937Z,101007.16
2022-09-24T01:33:57.090Z,100997.28
2022-09-24T01:37:02.029Z,100999.41
2022-09-24T01:40:07.689Z,100994.25
2022-09-24T01:43:12.796Z,100992.22
2022-09-24T01:46:19.853Z,100989.97
2022-09-24T01:49:22.797Z,100987.50
2022-09-24T01:52:31.626Z,100980.09
2022-09-24T01:55:38.509Z,100976.50
2022-09-24T01:58:48.621Z,100981.97
2022-09-24T02:02:00.231Z,100972.66
2022-09-24T02:05:09.142Z,100979.38
2022-09-24T02:08:17.568Z,100979.16
2022-09-24T02:11:23.488Z,100968.97
2022-09-24T02:14:28.510Z,100978.16
2022-09-24T02:17:36.895Z,100975.41
2022-09-24T02:20:42.414Z,100970.16
2022-09-24T02:23:51.708Z,100969.03
2022-09-24T02:26:55.079Z,100978.97
2022-09-24T02:29:58.906Z,100975.09
2022-09-24T02:33:23.317Z,100965.69
2022-09-24T02:36:25.604Z,100969.25
2022-09-24T02:39:28.531Z,100976.63
2022-09-24T02:42:32.113Z,100976.44
2022-09-24T02:45:34.798Z,100972.97
2022-09-24T02:48:38.754Z,100973.16
2022-09-24T02:51:41.701Z,100982.69
2022-09-24T02:54:44.310Z,100978.50
2022-09-24T02:57:48.211Z,100972.69
2022-09-24T03:00:50.758Z,100974.03
2022-09-24T03:03:54.900Z,100968.81
2022-09-24T03:06:57.738Z,100966.88
2022-09-24T03:10:00.458Z,100967.72
2022-09-24T03:13:03.176Z,100961.84
2022-09-24T03:16:06.057Z,100964.03
2022-09-24T03:19:12.604Z,100963.47
2022-09-24T03:22:15.164Z,100956.50
2022-09-24T03:25:17.897Z,100959.78
2022-09-24T03:28:20.780Z,100957.28
2022-09-24T03:31:24.398Z,100955.63
2022-09-24T03:34:28.490Z,100952.31
2022-09-24T03:37:32.052Z,100956.19
2022-09-24T03:40:34.755Z,100943.81
2022-09-24T03:43:38.093Z,100943.81
2022-09-24T03:46:40.883Z,100944.91
2022-09-24T03:49:44.836Z,100939.38
2022-09-24T03:52:48.674Z,100944.88
2022-09-24T03:55:55.888Z,100941.03
2022-09-24T03:58:58.422Z,100927.53
2022-09-24T04:02:01.221Z,100931.44
2022-09-24T04:05:05.749Z,100933.38
2022-09-24T04:08:08.644Z,100939.19
2022-09-24T04:11:11.216Z,100933.19
2022-09-24T04:14:13.879Z,100937.84
2022-09-24T04:17:17.503Z,100934.28
2022-09-24T04:20:22.853Z,100938.34
2022-09-24T04:23:25.572Z,100934.28
2022-09-24T04:26:28.154Z,100937.84
2022-09-24T04:29:30.873Z,100941.09
2022-09-24T04:32:33.538Z,100937.22
2022-09-24T04:35:37.584Z,100938.88
2022-09-24T04:38:40.343Z,100931.16
2022-09-24T04:41:42.907Z,100933.88
2022-09-24T04:44:47.404Z,100936.84
2022-09-24T04:47:52.475Z,100929.19
2022-09-24T04:50:56.642Z,100937.94
2022-09-24T04:53:59.825Z,100936.56
2022-09-24T04:57:02.482Z,100938.44
2022-09-24T05:00:08.603Z,100928.53
2022-09-24T05:03:11.259Z,100934.50
2022-09-24T05:06:15.361Z,100939.25
2022-09-24T05:09:18.291Z,100924.63
2022-09-24T05:12:21.681Z,100929.34
2022-09-24T05:15:24.257Z,100931.00
2022-09-24T05:18:27.136Z,100921.16
2022-09-24T05:21:31.120Z,100923.91
2022-09-24T05:24:34.937Z,100927.47
2022-09-24T05:27:36.676Z,100931.56
2022-09-24T05:30:39.405Z,100929.41
2022-09-24T05:33:42.050Z,100926.78
2022-09-24T05:36:46.121Z,100932.78
2022-09-24T05:39:48.797Z,100935.84
2022-09-24T05:42:51.918Z,100934.19
2022-09-24T05:45:54.807Z,100933.88
2022-09-24T05:48:57.821Z,100933.66
2022-09-24T05:52:02.032Z,100933.66
2022-09-24T05:55:05.266Z,100935.31
2022-09-24T05:58:10.612Z,100949.97
2022-09-24T06:01:13.277Z,100945.22
2022-09-24T06:04:16.988Z,100942.25
2022-09-24T06:07:21.573Z,100947.00
2022-09-24T06:10:25.921Z,100946.13
2022-09-24T06:13:28.546Z,100961.00
2022-09-24T06:16:33.651Z,100950.09
2022-09-24T06:19:36.373Z,100953.75
2022-09-24T06:22:40.316Z,100948.31
2022-09-24T06:25:43.042Z,100952.25
2022-09-24T06:28:45.808Z,100954.00
2022-09-24T06:31:48.832Z,100946.09
2022-09-24T06:34:56.818Z,100944.47
2022-09-24T06:38:02.985Z,100939.56
2022-09-24T06:41:07.397Z,100944.31
2022-09-24T06:44:10.047Z,100937.50
2022-09-24T06:47:13.322Z,100925.72
2022-09-24T06:50:15.909Z,100933.47
2022-09-24T06:53:20.183Z,100929.66
2022-09-24T06:56:22.885Z,100925.56
2022-09-24T06:59:25.601Z,100942.06
2022-09-24T07:02:28.586Z,100940.16
2022-09-24T07:05:31.558Z,100938.78
2022-09-24T07:08:35.868Z,100943.22
2022-09-24T07:11:39.026Z,100953.16
2022-09-24T07:14:41.574Z,100949.56
2022-09-24T07:17:44.291Z,100955.41
2022-09-24T07:20:52.665Z,100958.72
2022-09-24T07:23:58.663Z,100954.03
2022-09-24T07:27:01.550Z,100971.72
2022-09-24T07:30:05.987Z,100962.34
2022-09-24T07:33:09.135Z,100969.50
2022-09-24T07:36:11.676Z,100968.41
2022-09-24T07:39:16.371Z,100968.69
2022-09-24T07:42:19.406Z,100965.41
2022-09-24T07:45:22.383Z,100968.16
2022-09-24T07:48:25.015Z,100963.25
2022-09-24T07:51:29.021Z,100963.81
2022-09-24T07:54:33.079Z,100963.56
2022-09-24T07:57:35.714Z,100969.34
2022-09-24T08:00:38.438Z,100975.44
2022-09-24T08:03:41.322Z,100976.81
2022-09-24T08:06:47.582Z,100976.03
2022-09-24T08:09:51.913Z,100977.97
2022-09-24T08:12:54.773Z,100979.06
2022-09-24T08:15:59.885Z,100978.00
2022-09-24T08:19:02.640Z,100977.16
2022-09-24T08:22:05.415Z,100979.38
2022-09-24T08:25:09.669Z,100981.84
2022-09-24T08:28:12.317Z,100974.41
2022-09-24T08:31:15.225Z,100967.78
2022-09-24T08:34:17.978Z,100977.41
2022-09-24T08:37:20.641Z,100971.56
2022-09-24T08:40:27.662Z,100978.44
2022-09-24T08:43:41.977Z,100972.84
2022-09-24T08:47:06.468Z,100971.09
2022-09-24T08:50:15.728Z,100974.09
2022-09-24T08:53:23.857Z,100975.19
2022-09-24T08:56:31.063Z,100975.63
2022-09-24T08:59:36.637Z,100985.31
2022-09-24T09:02:44.782Z,100976.16
2022-09-24T09:05:55.250Z,100983.03
2022-09-24T09:09:07.527Z,100981.31
2022-09-24T09:12:16.504Z,100977.31
2022-09-24T09:15:22.684Z,100977.97
2022-09-24T09:18:30.597Z,100982.31
2022-09-24T09:21:41.639Z,100975.66
2022-09-24T09:24:48.931Z,100975.34
2022-09-24T09:27:57.485Z,100979.91
2022-09-24T09:31:11.160Z,100975.31
2022-09-24T09:34:31.387Z,100967.34
2022-09-24T09:37:43.897Z,100964.28
2022-09-24T09:40:53.681Z,100969.63
2022-09-24T09:44:03.799Z,100970.28
2022-09-24T09:47:16.978Z,100959.03
2022-09-24T09:50:27.552Z,100958.34
2022-09-24T09:53:32.287Z,100958.81
2022-09-24T09:56:37.097Z,100957.78
2022-09-24T09:59:41.490Z,100965.34
2022-09-24T10:02:44.823Z,100961.75
2022-09-24T10:05:53.582Z,100961.59
2022-09-24T10:09:09.326Z,100964.88
2022-09-24T10:12:18.656Z,100956.09
2022-09-24T10:15:25.077Z,100958.06
2022-09-24T10:18:32.823Z,100960.63
2022-09-24T10:21:37.829Z,100960.69
2022-09-24T10:24:43.473Z,100964.50
2022-09-24T10:27:46.193Z,100968.00
2022-09-24T10:30:57.054Z,100979.53
2022-09-24T10:34:02.303Z,100970.97
2022-09-24T10:37:13.698Z,100971.81
2022-09-24T10:40:17.635Z,100977.81
2022-09-24T10:43:22.356Z,100967.72
2022-09-24T10:46:54.866Z,100969.19
2022-09-24T10:50:15.789Z,100978.03
2022-09-24T10:53:29.676Z,100975.22
2022-09-24T10:56:43.549Z,100983.88
2022-09-24T10:59:56.794Z,100962.75
2022-09-24T11:03:34.007Z,100968.41
2022-09-24T11:06:52.064Z,100962.09
2022-09-24T11:10:02.021Z,100958.84
2022-09-24T11:13:15.431Z,100958.31
2022-09-24T11:16:45.644Z,100958.84
2022-09-24T11:20:07.187Z,100967.09
2022-09-24T11:23:49.242Z,100964.34
2022-09-24T11:27:06.406Z,100966.31
2022-09-24T11:30:13.554Z,100962.00
2022-09-24T11:33:32.559Z,100964.84
2022-09-24T11:36:48.433Z,100956.53
2022-09-24T11:40:06.411Z,100954.66
2022-09-24T11:43:28.199Z,100954.00
2022-09-24T11:46:45.369Z,100956.47
2022-09-24T11:50:11.504Z,100966.47
2022-09-24T11:53:23.611Z,100961.44
2022-09-24T11:56:36.000Z,100963.16
2022-09-24T11:59:50.368Z,100962.94
2022-09-24T12:02:58.580Z,100964.97
2022-09-24T12:06:06.982Z,100960.63
2022-09-24T12:09:18.885Z,100963.72
2022-09-24T12:12:27.922Z,100962.63
2022-09-24T12:15:41.035Z,100962.72
2022-09-24T12:18:57.194Z,100962.13
2022-09-24T12:22:02.967Z,100959.88
2022-09-24T12:25:08.950Z,100957.25
2022-09-24T12:28:38.684Z,100953.75
2022-09-24T12:32:08.286Z,100957.16
2022-09-24T12:35:24.226Z,100951.03
2022-09-24T12:38:34.145Z,100952.34
2022-09-24T12:41:42.751Z,100957.16
2022-09-24T12:44:54.695Z,100961.47
2022-09-24T12:48:02.141Z,100960.34
2022-09-24T12:51:10.899Z,100955.97
2022-09-24T12:54:28.697Z,100952.78
2022-09-24T12:57:36.748Z,100955.91
2022-09-24T13:00:43.586Z,100946.53
2022-09-24T13:03:47.676Z,100949.19
2022-09-24T13:06:53.616Z,100953.00
2022-09-24T13:09:56.692Z,100950.75
2022-09-24T13:13:01.283Z,100950.38
2022-09-24T13:16:08.016Z,100943.97
2022-09-24T13:19:30.809Z,100948.13
2022-09-24T13:22:35.878Z,100950.63
2022-09-24T13:25:38.937Z,100943.78
2022-09-24T13:29:01.600Z,100948.16
2022-09-24T13:32:06.848Z,100945.88
2022-09-24T13:35:21.167Z,100946.09
2022-09-24T13:38:34.459Z,100944.38
2022-09-24T13:41:46.463Z,100944.78
2022-09-24T13:44:54.528Z,100940.72
2022-09-24T13:48:03.421Z,100941.50
2022-09-24T13:51:12.211Z,100948.56
2022-09-24T13:54:20.385Z,100944.75
2022-09-24T13:57:43.494Z,100942.66
2022-09-24T14:00:46.560Z,100934.63
2022-09-24T14:04:02.514Z,100939.38
2022-09-24T14:07:05.425Z,100936.81
2022-09-24T14:10:14.219Z,100940.28
2022-09-24T14:13:21.778Z,100933.84
2022-09-24T14:16:26.309Z,100928.78
2022-09-24T14:19:34.362Z,100935.38
2022-09-24T14:22:40.960Z,100932.78
2022-09-24T14:25:44.204Z,100930.13
2022-09-24T14:28:47.298Z,100937.44
2022-09-24T14:31:55.721Z,100933.91
2022-09-24T14:35:02.020Z,100941.34
2022-09-24T14:38:13.050Z,100934.44
2022-09-24T14:41:21.759Z,100935.66
2022-09-24T14:44:27.546Z,100932.63
2022-09-24T14:47:35.328Z,100930.16
2022-09-24T14:50:41.944Z,100927.47
2022-09-24T14:53:45.018Z,100927.84
2022-09-24T14:56:52.125Z,100932.13
2022-09-24T14:59:55.070Z,100932.47
2022-09-24T15:03:01.556Z,100938.41
2022-09-24T15:06:19.147Z,100935.16
2022-09-24T15:09:26.781Z,100931.94
2022-09-24T15:12:32.758Z,100927.84
2022-09-24T15:15:36.587Z,100932.94
2022-09-24T15:18:39.627Z,100931.97
2022-09-24T15:21:44.096Z,100938.09
2022-09-24T15:24:50.132Z,100941.19
2022-09-24T15:27:54.779Z,100938.19
2022-09-24T15:30:57.948Z,100939.63
2022-09-24T15:34:00.956Z,100938.91
2022-09-24T15:37:05.143Z,100937.84
2022-09-24T15:40:13.059Z,100942.03
2022-09-24T15:43:21.996Z,100935.44
2022-09-24T15:46:29.905Z,100930.81
2022-09-24T15:49:37.522Z,100930.59
2022-09-24T15:52:48.015Z,100935.31
2022-09-24T15:55:56.143Z,100930.16
2022-09-24T15:58:58.952Z,100933.22
2022-09-24T16:02:05.090Z,100934.41
2022-09-24T16:05:12.438Z,100934.94
2022-09-24T16:08:20.617Z,100933.88
2022-09-24T16:11:23.583Z,100936.97
2022-09-24T16:14:26.767Z,100935.06
2022-09-24T16:17:29.829Z,100937.88
2022-09-24T16:20:35.279Z,100944.00
2022-09-24T16:23:48.190Z,100940.97
2022-09-24T16:26:51.369Z,100944.34
2022-09-24T16:29:54.572Z,100950.47
2022-09-24T16:33:00.567Z,100953.78
2022-09-24T16:36:10.137Z,100950.47
2022-09-24T16:39:15.740Z,100953.31
2022-09-24T16:42:20.630Z,100951.44
2022-09-24T16:45:23.923Z,100946.22
2022-09-24T16:48:27.055Z,100960.91
2022-09-24T16:51:30.114Z,100954.59
2022-09-24T16:54:35.858Z,100953.50
2022-09-24T16:57:39.264Z,100946.63
2022-09-24T17:00:43.744Z,100954.94
2022-09-24T17:03:51.935Z,100961.56
2022-09-24T17:06:55.224Z,100954.66
2022-09-24T17:10:16.126Z,100965.72
2022-09-24T17:13:19.713Z,100964.63
2022-09-24T17:16:23.759Z,100964.38
2022-09-24T17:19:32.509Z,100962.44
2022-09-24T17:22:35.337Z,100967.44
2022-09-24T17:25:41.595Z,100969.13
2022-09-24T17:32:05.610Z,100972.16
2022-09-24T17:35:09.197Z,100968.28
2022-09-24T17:38:12.026Z,100968.28
2022-09-24T17:41:20.013Z,100976.00
2022-09-24T17:44:22.963Z,100972.44
2022-09-24T17:47:46.460Z,100974.09
2022-09-24T17:50:55.153Z,100968.28
2022-09-24T17:53:58.423Z,100984.03
2022-09-24T17:57:11.553Z,100969.16
2022-09-24T18:00:17.398Z,100983.22
2022-09-24T18:03:23.672Z,100986.56
2022-09-24T18:06:32.047Z,100991.22
2022-09-24T18:09:35.941Z,100993.16
2022-09-24T18:12:42.691Z,100991.22
2022-09-24T18:15:45.938Z,100985.19
2022-09-24T18:18:50.204Z,100997.03
2022-09-24T18:21:56.716Z,100999.81
2022-09-24T18:25:00.938Z,101003.94
2022-09-24T18:28:09.485Z,101000.59
2022-09-24T18:31:13.319Z,101003.94
2022-09-24T18:34:17.236Z,101004.47
2022-09-24T18:37:20.160Z,100994.81
2022-09-24T18:40:23.304Z,100999.22
2022-09-24T18:43:27.666Z,100998.41
2022-09-24T18:46:35.289Z,100991.78
2022-09-24T18:49:38.116Z,100999.25
2022-09-24T18:52:41.236Z,101000.88
2022-09-24T18:55:45.024Z,101000.59
2022-09-24T18:58:49.528Z,101007.22
2022-09-24T19:01:52.430Z,101011.91
2022-09-24T19:04:57.930Z,101008.84
2022-09-24T19:08:00.921Z,101005.56
2022-09-24T19:11:07.711Z,101007.75
2022-09-24T19:14:14.936Z,101008.34
2022-09-24T19:17:18.102Z,101003.34
2022-09-24T19:20:21.162Z,101005.00
2022-09-24T19:23:24.240Z,100998.66
2022-09-24T19:26:29.706Z,101009.09
2022-09-24T19:29:35.569Z,101009.09
2022-09-24T19:32:43.479Z,100999.22
2022-09-24T19:36:02.240Z,101000.03
2022-09-24T19:39:07.255Z,100999.72
2022-09-24T19:42:10.162Z,100995.56
2022-09-24T19:45:14.892Z,100993.09
2022-09-24T19:48:23.702Z,100989.47
2022-09-24T19:51:28.225Z,100979.00
2022-09-24T19:54:31.322Z,100996.94
2022-09-24T19:57:34.986Z,100994.16
2022-09-24T20:00:42.636Z,100983.13
2022-09-24T20:03:45.933Z,100993.06
2022-09-24T20:06:48.906Z,100987.53
2022-09-24T20:09:51.815Z,100987.53
2022-09-24T20:12:54.993Z,100990.31
2022-09-24T20:16:01.071Z,100988.91
2022-09-24T20:19:05.386Z,100999.69
2022-09-24T20:22:16.574Z,101000.22
2022-09-24T20:25:44.442Z,101000.22
2022-09-24T20:28:48.541Z,100993.59
2022-09-24T20:31:55.559Z,100995.00
2022-09-24T20:34:59.254Z,100991.38
2022-09-24T20:38:03.947Z,100991.09
2022-09-24T20:41:40.285Z,100990.00
2022-09-24T20:44:49.343Z,100988.63
2022-09-24T20:47:59.693Z,100996.31
2022-09-24T20:51:10.530Z,100993.56
2022-09-24T20:54:19.983Z,100991.06
2022-09-24T20:57:26.233Z,100997.13
2022-09-24T21:00:50.870Z,100994.91
2022-09-24T21:04:08.839Z,100997.38
2022-09-24T21:07:29.320Z,100990.22
2022-09-24T21:10:32.773Z,100994.88
2022-09-24T21:13:40.610Z,100997.34
2022-09-24T21:16:46.973Z,100986.88
2022-09-24T21:20:12.180Z,100991.00
2022-09-24T21:23:38.278Z,100994.88
2022-09-24T21:30:36.126Z,100981.34
2022-09-24T21:34:27.408Z,100978.03
2022-09-24T21:37:53.441Z,100978.56
2022-09-24T21:41:05.291Z,100975.81
2022-09-24T21:44:52.217Z,100978.28
2022-09-24T21:48:01.262Z,100967.84
2022-09-24T21:51:21.350Z,100967.81
2022-09-24T21:54:30.576Z,100963.94
2022-09-24T21:57:41.516Z,100973.59
2022-09-24T22:00:44.380Z,100972.22
2022-09-24T22:03:48.254Z,100965.88
2022-09-24T22:06:57.923Z,100971.72
2022-09-24T22:10:06.983Z,100973.31
2022-09-24T22:13:17.291Z,100967.53
2022-09-24T22:16:20.847Z,100968.09
2022-09-24T22:19:24.225Z,100972.53
2022-09-24T22:22:32.495Z,100968.91
2022-09-24T22:25:37.169Z,100967.53
2022-09-24T22:28:40.693Z,100962.84
2022-09-24T22:31:44.025Z,100965.06
2022-09-24T22:35:04.743Z,100959.53
2022-09-24T22:38:07.985Z,100961.47
2022-09-24T22:41:18.931Z,100959.53
2022-09-24T22:44:21.942Z,100954.03
2022-09-24T22:47:34.957Z,100964.22
2022-09-24T22:50:38.064Z,100964.50
2022-09-24T22:53:51.431Z,100952.09
2022-09-24T22:56:58.833Z,100954.03
2022-09-24T23:00:02.870Z,100950.44
2022-09-24T23:03:08.398Z,100948.75
2022-09-24T23:06:33.913Z,100953.97
2022-09-24T23:13:31.325Z,100947.63
2022-09-24T23:24:18.477Z,100950.09
2022-09-24T23:27:42.509Z,100953.13
2022-09-24T23:31:17.851Z,100946.25
2022-09-24T23:34:22.329Z,100948.41
2022-09-24T23:37:28.575Z,100943.19
2022-09-24T23:40:33.812Z,100947.88
2022-09-24T23:43:47.516Z,100938.25
2022-09-24T23:55:13.135Z,100949.50
2022-09-24T23:58:23.167Z,100940.13
